Time;durP1;ratioP1;P1;durP2;ratioP2;P2;SDS_P1;SDS_P2;PMS_P1;PMS_P2;Temp;Humidity;BMP_temperature;BMP_pressure;BME280_temperature;BME280_humidity;BME280_pressure;Samples;Min_cycle;Max_cycle;Signal;HPM_P1;HPM_P2
2023/01/18 04:02:10;;;;;;;1.40;1.00;;;16.10;49.60;;;;;;5106846;23;47751;-60
2023/01/18 04:04:37;;;;;;;1.20;0.80;;;16.10;49.60;;;;;;4878524;28;45514;-60
2023/01/18 04:07:03;;;;;;;0.90;0.80;;;16.10;49.50;;;;;;4881564;28;45151;-61
2023/01/18 04:09:28;;;;;;;1.60;1.30;;;16.10;49.50;;;;;;4923394;28;45589;-61
2023/01/18 04:11:54;;;;;;;1.50;1.20;;;16.10;49.50;;;;;;4942098;28;45316;-60
2023/01/18 04:14:19;;;;;;;1.13;0.95;;;16.10;49.60;;;;;;4905341;28;45918;-60
2023/01/18 04:16:45;;;;;;;1.25;1.13;;;16.00;49.50;;;;;;4907111;28;45237;-61
2023/01/18 04:19:10;;;;;;;1.23;0.90;;;16.10;49.60;;;;;;4939930;28;45493;-61
2023/01/18 04:21:37;;;;;;;1.33;0.90;;;16.10;49.50;;;;;;4929203;28;45174;-61
2023/01/18 04:24:03;;;;;;;1.80;1.20;;;16.00;49.50;;;;;;4937468;28;46299;-61
2023/01/18 04:26:29;;;;;;;1.20;1.00;;;16.00;49.50;;;;;;4924140;28;45219;-61
2023/01/18 04:28:54;;;;;;;1.42;1.08;;;16.00;49.60;;;;;;4925142;28;45172;-61
2023/01/18 04:31:20;;;;;;;1.52;1.10;;;16.00;49.60;;;;;;4927683;28;45353;-61
2023/01/18 04:33:50;;;;;;;2.22;1.10;;;16.00;49.60;;;;;;4926039;28;45565;-61
2023/01/18 04:36:16;;;;;;;1.02;0.90;;;16.00;49.60;;;;;;4923463;28;44986;-61
2023/01/18 04:38:42;;;;;;;1.55;1.08;;;16.00;49.60;;;;;;4926438;28;45082;-61
2023/01/18 04:41:07;;;;;;;1.23;0.98;;;16.00;49.60;;;;;;4942899;28;45698;-61
2023/01/18 04:43:33;;;;;;;1.77;1.00;;;16.00;49.60;;;;;;4926698;28;45834;-61
2023/01/18 04:45:58;;;;;;;1.50;1.02;;;16.00;49.70;;;;;;4925949;28;45528;-61
2023/01/18 04:48:24;;;;;;;1.20;0.95;;;15.90;49.60;;;;;;4941163;28;45383;-60
2023/01/18 04:50:50;;;;;;;1.30;1.15;;;15.90;49.60;;;;;;4912061;28;45243;-61
2023/01/18 04:53:16;;;;;;;1.20;1.10;;;15.90;49.60;;;;;;4924811;28;45855;-61
2023/01/18 04:55:41;;;;;;;1.70;1.13;;;15.90;49.60;;;;;;4925245;28;45082;-61
2023/01/18 04:58:07;;;;;;;1.65;1.00;;;15.90;49.60;;;;;;4938056;28;45728;-61
2023/01/18 05:00:32;;;;;;;1.40;1.10;;;15.90;49.70;;;;;;4941709;28;45018;-61
2023/01/18 05:02:58;;;;;;;1.45;1.08;;;15.90;49.60;;;;;;4942366;28;45437;-61
2023/01/18 05:05:24;;;;;;;1.73;1.20;;;15.90;49.60;;;;;;4952524;28;45216;-61
2023/01/18 05:07:50;;;;;;;1.33;1.05;;;15.90;49.60;;;;;;4934675;28;45673;-61
2023/01/18 05:10:15;;;;;;;0.90;0.75;;;15.80;49.60;;;;;;4942757;28;45408;-61
2023/01/18 05:12:41;;;;;;;1.90;1.45;;;15.90;49.60;;;;;;4946964;28;45503;-60
2023/01/18 05:15:07;;;;;;;1.42;1.27;;;15.80;49.60;;;;;;4945940;28;45325;-61
2023/01/18 05:17:33;;;;;;;1.48;0.90;;;15.80;49.60;;;;;;4939789;28;44880;-61
2023/01/18 05:20:05;;;;;;;1.45;1.20;;;15.80;49.60;;;;;;4945345;28;44905;-61
2023/01/18 05:22:31;;;;;;;1.30;1.00;;;15.80;49.60;;;;;;4910402;28;45251;-61
2023/01/18 05:24:57;;;;;;;2.20;1.20;;;15.80;49.70;;;;;;4946884;28;45290;-61
2023/01/18 05:27:23;;;;;;;1.13;1.02;;;15.80;49.70;;;;;;4924954;28;45199;-61
2023/01/18 05:29:48;;;;;;;1.52;1.02;;;15.80;49.80;;;;;;4946508;28;45059;-60
2023/01/18 05:32:14;;;;;;;1.45;1.10;;;15.80;49.70;;;;;;4908720;28;45413;-61
2023/01/18 05:34:39;;;;;;;1.02;0.90;;;15.80;49.70;;;;;;4928423;28;45175;-61
2023/01/18 05:37:05;;;;;;;1.52;0.95;;;15.70;49.60;;;;;;4927695;28;45397;-61
2023/01/18 05:39:30;;;;;;;1.33;1.02;;;15.70;49.60;;;;;;4926816;28;45237;-61
2023/01/18 05:41:56;;;;;;;1.55;1.05;;;15.70;49.70;;;;;;4923101;28;45403;-61
2023/01/18 05:44:21;;;;;;;1.42;1.15;;;15.70;49.70;;;;;;4940894;28;45206;-61
2023/01/18 05:46:47;;;;;;;3.17;1.20;;;15.70;49.70;;;;;;4942711;28;45469;-63
2023/01/18 05:49:13;;;;;;;0.85;0.80;;;15.70;49.70;;;;;;4926255;28;44905;-61
2023/01/18 05:51:38;;;;;;;2.35;1.35;;;15.70;49.70;;;;;;4926146;28;45607;-61
2023/01/18 05:54:04;;;;;;;1.85;1.10;;;15.70;49.70;;;;;;4929544;28;45590;-61
2023/01/18 05:56:29;;;;;;;1.60;1.20;;;15.70;49.70;;;;;;4942886;28;46070;-61
2023/01/18 05:58:55;;;;;;;1.90;1.20;;;15.70;49.70;;;;;;4923929;28;45525;-61
2023/01/18 06:01:20;;;;;;;1.85;1.08;;;15.70;49.70;;;;;;4926954;28;45111;-61
2023/01/18 06:03:46;;;;;;;1.15;1.00;;;15.60;49.70;;;;;;4911557;28;45853;-61
2023/01/18 06:06:11;;;;;;;1.40;1.30;;;15.60;49.80;;;;;;4947092;28;45529;-61
2023/01/18 06:08:37;;;;;;;1.40;1.10;;;15.60;49.80;;;;;;4926500;28;45197;-61
2023/01/18 06:11:03;;;;;;;2.28;1.20;;;15.60;49.80;;;;;;4940254;28;45404;-60
2023/01/18 06:13:29;;;;;;;1.10;1.00;;;15.60;49.70;;;;;;4944467;28;45085;-61
2023/01/18 06:15:56;;;;;;;1.40;1.10;;;15.60;49.80;;;;;;4933391;28;45017;-61
2023/01/18 06:18:23;;;;;;;2.58;1.38;;;15.60;49.70;;;;;;4909681;28;45531;-61
2023/01/18 06:20:48;;;;;;;1.20;1.10;;;15.60;49.70;;;;;;4937326;28;45328;-61
2023/01/18 06:23:14;;;;;;;1.52;1.10;;;15.60;49.80;;;;;;4934224;28;45387;-61
2023/01/18 06:25:39;;;;;;;2.38;1.30;;;15.60;49.80;;;;;;4924611;28;45281;-62
2023/01/18 06:28:05;;;;;;;1.23;0.98;;;15.60;49.80;;;;;;4926291;28;46345;-61
2023/01/18 06:30:31;;;;;;;1.15;0.98;;;15.60;49.80;;;;;;4940625;28;45172;-61
2023/01/18 06:32:57;;;;;;;1.67;1.08;;;15.60;49.90;;;;;;4926078;28;45389;-61
2023/01/18 06:35:22;;;;;;;1.75;1.23;;;15.50;49.80;;;;;;4940313;28;44747;-61
2023/01/18 06:37:48;;;;;;;1.75;1.10;;;15.50;49.80;;;;;;4945541;28;45202;-61
2023/01/18 06:40:14;;;;;;;1.42;1.02;;;15.50;49.80;;;;;;4939529;28;45502;-61
2023/01/18 06:42:39;;;;;;;1.50;1.20;;;15.50;49.80;;;;;;4905783;28;44794;-61
2023/01/18 06:45:05;;;;;;;1.55;1.20;;;15.50;49.90;;;;;;4940250;28;45099;-62
2023/01/18 06:47:31;;;;;;;2.55;1.50;;;15.50;49.80;;;;;;4926109;28;44857;-61
2023/01/18 06:49:56;;;;;;;1.25;0.85;;;15.50;49.80;;;;;;4928065;28;45377;-60
2023/01/18 06:52:22;;;;;;;1.48;1.10;;;15.50;49.90;;;;;;4946362;28;44850;-61
2023/01/18 06:54:47;;;;;;;1.63;1.13;;;15.50;49.90;;;;;;4934836;28;45499;-61
2023/01/18 06:57:13;;;;;;;1.50;1.10;;;15.50;49.90;;;;;;4923788;28;45394;-61
2023/01/18 06:59:39;;;;;;;1.20;0.98;;;15.50;49.90;;;;;;4942756;28;45596;-61
2023/01/18 07:02:04;;;;;;;1.77;1.20;;;15.50;49.90;;;;;;4939767;28;45242;-61
2023/01/18 07:04:31;;;;;;;1.15;1.02;;;15.40;49.90;;;;;;4943234;28;45035;-61
2023/01/18 07:06:57;;;;;;;1.02;0.93;;;15.40;49.90;;;;;;4943219;28;45526;-60
2023/01/18 07:09:23;;;;;;;1.13;1.00;;;15.40;49.90;;;;;;4951066;28;45249;-61
2023/01/18 07:11:48;;;;;;;1.40;1.30;;;15.40;49.90;;;;;;4941638;28;45190;-60
2023/01/18 07:14:14;;;;;;;1.73;1.10;;;15.40;49.90;;;;;;4944796;28;44872;-61
2023/01/18 07:16:39;;;;;;;1.55;1.00;;;15.40;50.00;;;;;;4945848;28;45366;-61
2023/01/18 07:19:05;;;;;;;1.50;1.08;;;15.40;50.00;;;;;;4932856;28;45206;-61
2023/01/18 07:21:31;;;;;;;1.88;1.30;;;15.40;50.00;;;;;;4913755;28;45509;-61
2023/01/18 07:23:57;;;;;;;1.30;1.20;;;15.40;50.00;;;;;;4934928;28;45459;-61
2023/01/18 07:26:22;;;;;;;1.77;1.23;;;15.40;50.00;;;;;;4947557;28;45171;-61
2023/01/18 07:28:48;;;;;;;1.45;1.25;;;15.40;49.90;;;;;;4926450;28;45602;-61
2023/01/18 07:31:14;;;;;;;1.50;1.08;;;15.40;50.00;;;;;;4927914;28;45659;-61
2023/01/18 07:33:40;;;;;;;1.83;1.30;;;15.40;50.00;;;;;;4929319;28;45623;-61
2023/01/18 07:36:08;;;;;;;2.05;1.15;;;15.30;49.90;;;;;;4941467;28;45480;-61
2023/01/18 07:38:33;;;;;;;1.88;1.23;;;15.30;50.00;;;;;;4948473;28;47102;-61
2023/01/18 07:41:07;;;;;;;1.77;1.35;;;15.30;49.90;;;;;;4918845;28;45231;-61
2023/01/18 07:43:32;;;;;;;1.55;1.30;;;15.30;50.00;;;;;;4949683;28;45124;-60
2023/01/18 07:45:58;;;;;;;1.80;1.30;;;15.30;50.00;;;;;;4928223;28;45464;-61
2023/01/18 07:48:24;;;;;;;2.08;1.40;;;15.30;50.00;;;;;;4951265;28;45503;-61
2023/01/18 07:51:01;;;;;;;1.58;1.10;;;15.30;50.00;;;;;;4932588;28;45622;-61
2023/01/18 07:53:27;;;;;;;1.80;1.20;;;15.30;50.00;;;;;;4927580;28;44765;-61
2023/01/18 07:55:53;;;;;;;1.65;1.27;;;15.30;50.00;;;;;;4932690;28;45441;-60
2023/01/18 07:58:18;;;;;;;1.88;1.45;;;15.30;50.00;;;;;;4946910;28;45634;-61
2023/01/18 08:00:44;;;;;;;1.48;1.08;;;15.30;50.00;;;;;;4925614;28;45527;-60
2023/01/18 08:03:13;;;;;;;1.65;1.20;;;15.30;50.00;;;;;;4950309;28;45431;-61
2023/01/18 08:05:41;;;;;;;1.17;0.85;;;15.30;50.00;;;;;;4929948;28;45257;-60
2023/01/18 08:08:08;;;;;;;1.42;1.02;;;15.30;50.10;;;;;;4939038;28;45508;-61
2023/01/18 08:10:34;;;;;;;1.77;1.30;;;15.20;50.00;;;;;;4925722;28;45471;-61
2023/01/18 08:13:00;;;;;;;1.33;1.00;;;15.20;50.00;;;;;;4935040;28;45636;-60
2023/01/18 08:15:25;;;;;;;1.20;1.10;;;15.20;50.00;;;;;;4945844;28;45240;-61
2023/01/18 08:17:51;;;;;;;1.65;1.02;;;15.20;50.00;;;;;;4943929;28;45615;-61
2023/01/18 08:20:16;;;;;;;1.67;1.10;;;15.20;50.00;;;;;;4935688;28;45220;-61
2023/01/18 08:22:42;;;;;;;1.50;1.33;;;15.20;50.00;;;;;;4933776;28;45368;-60
2023/01/18 08:25:08;;;;;;;2.25;1.30;;;15.20;50.00;;;;;;4931292;28;45243;-60
2023/01/18 08:27:34;;;;;;;1.67;1.30;;;15.20;50.00;;;;;;4927455;28;45459;-61
2023/01/18 08:29:59;;;;;;;1.90;1.35;;;15.20;50.00;;;;;;4940732;28;45564;-61
2023/01/18 08:32:25;;;;;;;1.80;1.20;;;15.20;50.00;;;;;;4953113;28;45147;-61
2023/01/18 08:34:50;;;;;;;2.33;1.30;;;15.20;50.00;;;;;;4945381;28;45570;-60
2023/01/18 08:37:16;;;;;;;1.08;0.90;;;15.10;50.00;;;;;;4948741;28;46714;-60
2023/01/18 08:39:41;;;;;;;1.83;1.27;;;15.10;50.00;;;;;;4939568;28;45763;-60
2023/01/18 08:42:10;;;;;;;1.40;0.88;;;15.10;50.00;;;;;;4928744;28;45314;-60
2023/01/18 08:44:35;;;;;;;2.00;1.33;;;15.10;50.10;;;;;;4931667;28;45250;-61
2023/01/18 08:47:02;;;;;;;1.48;1.10;;;15.10;50.10;;;;;;4945606;28;45544;-61
2023/01/18 08:49:27;;;;;;;2.10;1.35;;;15.10;50.10;;;;;;4936954;28;45255;-61
2023/01/18 08:51:53;;;;;;;2.03;1.23;;;15.10;50.10;;;;;;4944714;28;45211;-61
2023/01/18 08:54:18;;;;;;;1.30;1.20;;;15.10;50.10;;;;;;4944365;28;45247;-61
2023/01/18 08:56:44;;;;;;;1.25;1.10;;;15.10;50.10;;;;;;4943582;28;45849;-61
2023/01/18 08:59:09;;;;;;;1.75;1.25;;;15.10;50.10;;;;;;4950017;28;45569;-61
2023/01/18 09:01:35;;;;;;;1.67;1.40;;;15.10;50.10;;;;;;4950338;28;44864;-61
2023/01/18 09:04:00;;;;;;;1.17;1.00;;;15.10;50.10;;;;;;4947145;28;46725;-61
2023/01/18 09:06:30;;;;;;;1.55;1.30;;;15.10;50.10;;;;;;4943267;28;46867;-61
2023/01/18 09:08:56;;;;;;;1.58;1.13;;;15.10;50.10;;;;;;4929904;28;45476;-61
2023/01/18 09:11:22;;;;;;;1.70;1.38;;;15.10;50.10;;;;;;4938450;28;45386;-59
2023/01/18 09:13:47;;;;;;;2.15;1.30;;;15.00;50.00;;;;;;4942985;28;45332;-60
2023/01/18 09:16:13;;;;;;;1.60;1.17;;;15.00;50.10;;;;;;4942790;28;45522;-61
2023/01/18 09:18:38;;;;;;;2.13;1.35;;;15.00;50.10;;;;;;4949631;28;44719;-61
2023/01/18 09:21:06;;;;;;;1.23;1.10;;;15.00;50.10;;;;;;4948005;28;44784;-60
2023/01/18 09:23:31;;;;;;;1.38;1.27;;;15.00;50.10;;;;;;4933894;28;45155;-61
2023/01/18 09:26:05;;;;;;;0.80;0.80;;;15.00;50.10;;;;;;4938288;28;45893;-61
2023/01/18 09:28:31;;;;;;;2.03;1.42;;;15.00;50.10;;;;;;4914616;28;45445;-61
2023/01/18 09:31:01;;;;;;;1.80;1.23;;;15.00;50.10;;;;;;4934291;28;45355;-61
2023/01/18 09:33:26;;;;;;;1.45;1.10;;;15.00;50.10;;;;;;4934354;28;45680;-61
2023/01/18 09:35:54;;;;;;;1.85;1.40;;;15.00;50.10;;;;;;4929582;28;45462;-60
2023/01/18 09:38:20;;;;;;;1.50;1.30;;;15.00;50.10;;;;;;4945583;28;45304;-61
2023/01/18 09:40:46;;;;;;;1.40;1.10;;;15.00;50.10;;;;;;4941839;28;44943;-61
2023/01/18 09:43:27;;;;;;;1.38;1.02;;;15.00;50.10;;;;;;4940117;28;45097;-61
2023/01/18 09:45:54;;;;;;;1.90;1.38;;;15.00;50.20;;;;;;4928562;28;45254;-61
2023/01/18 09:48:27;;;;;;;1.50;1.05;;;14.90;50.10;;;;;;4909488;28;45382;-61
2023/01/18 09:50:53;;;;;;;1.42;1.17;;;14.90;50.10;;;;;;4925270;28;45228;-61
2023/01/18 09:53:25;;;;;;;1.73;1.33;;;15.00;50.20;;;;;;4945558;28;45224;-61
2023/01/18 09:56:03;;;;;;;1.52;1.25;;;14.90;50.20;;;;;;4930757;28;47106;-61
2023/01/18 09:59:06;;;;;;;1.50;1.15;;;14.90;50.20;;;;;;4916150;28;44912;-61
2023/01/18 10:01:32;;;;;;;1.60;1.10;;;14.90;50.20;;;;;;4944342;28;44807;-61
2023/01/18 10:04:31;;;;;;;1.95;1.08;;;14.90;50.20;;;;;;4933281;28;46832;-60
2023/01/18 10:07:03;;;;;;;1.30;0.93;;;14.90;50.30;;;;;;4910144;28;45716;-61
2023/01/18 10:09:31;;;;;;;1.35;1.00;;;14.90;50.20;;;;;;4899402;28;45339;-61
2023/01/18 10:11:59;;;;;;;1.45;1.33;;;14.90;50.20;;;;;;4918111;28;45319;-61
2023/01/18 10:14:46;;;;;;;1.05;0.95;;;14.90;50.20;;;;;;4914720;28;45301;-61
2023/01/18 10:17:22;;;;;;;1.75;1.08;;;14.90;50.20;;;;;;4940699;28;45557;-61
2023/01/18 10:19:48;;;;;;;1.70;1.10;;;14.90;50.20;;;;;;4919166;28;45491;-61
2023/01/18 10:22:27;;;;;;;1.65;1.33;;;14.90;50.20;;;;;;4936141;28;45596;-60
2023/01/18 10:25:03;;;;;;;1.70;1.25;;;14.90;50.30;;;;;;4942260;28;45637;-61
2023/01/18 10:27:49;;;;;;;1.48;1.10;;;14.90;50.20;;;;;;4919476;28;47460;-61
2023/01/18 10:30:35;;;;;;;1.60;1.30;;;14.90;50.20;;;;;;4925795;28;45476;-59
2023/01/18 10:33:05;;;;;;;1.60;1.40;;;14.80;50.20;;;;;;4936226;28;45202;-61
2023/01/18 10:35:33;;;;;;;2.85;1.20;;;14.80;50.20;;;;;;4927722;28;45141;-61
2023/01/18 10:38:04;;;;;;;1.30;1.00;;;14.80;50.20;;;;;;4927348;28;45510;-61
2023/01/18 10:40:30;;;;;;;2.28;1.33;;;14.80;50.20;;;;;;4901685;28;44848;-61
2023/01/18 10:43:01;;;;;;;2.22;1.38;;;14.80;50.20;;;;;;4931305;28;46100;-61
2023/01/18 10:45:28;;;;;;;2.58;1.35;;;14.80;50.20;;;;;;4933237;28;45496;-60
2023/01/18 10:47:55;;;;;;;2.15;1.45;;;14.80;50.20;;;;;;4915685;28;45479;-60
2023/01/18 10:50:33;;;;;;;1.13;1.00;;;14.80;50.20;;;;;;4918268;28;44859;-60
2023/01/18 10:53:22;;;;;;;1.58;1.42;;;14.80;50.20;;;;;;4929705;28;45284;-61
2023/01/18 10:56:11;;;;;;;2.08;1.45;;;14.80;50.40;;;;;;4947055;28;45423;-60
2023/01/18 10:58:49;;;;;;;1.33;1.00;;;14.80;50.30;;;;;;4922017;28;45376;-60
2023/01/18 11:01:18;;;;;;;1.60;1.10;;;14.80;50.30;;;;;;4949041;28;45233;-61
2023/01/18 11:04:07;;;;;;;1.73;1.05;;;14.80;50.20;;;;;;4929003;28;45646;-60
2023/01/18 11:06:43;;;;;;;1.45;1.00;;;14.80;50.30;;;;;;4933717;28;45658;-59
2023/01/18 11:09:31;;;;;;;1.60;1.17;;;14.80;50.30;;;;;;4949616;28;45690;-60
2023/01/18 11:12:37;;;;;;;1.40;1.00;;;14.80;50.30;;;;;;4954705;28;45261;-60
2023/01/18 11:15:12;;;;;;;1.40;1.20;;;14.70;50.30;;;;;;4952685;28;45308;-60
2023/01/18 11:17:38;;;;;;;1.40;1.10;;;14.70;50.20;;;;;;4950425;28;45151;-60
2023/01/18 11:20:14;;;;;;;1.73;1.10;;;14.70;50.20;;;;;;4951122;28;46621;-62
2023/01/18 11:22:53;;;;;;;1.50;1.13;;;14.70;50.20;;;;;;4924050;28;44916;-60
2023/01/18 11:25:18;;;;;;;1.10;1.00;;;14.70;50.30;;;;;;4936161;28;45282;-59
2023/01/18 11:27:44;;;;;;;1.38;1.10;;;14.70;50.20;;;;;;4932786;28;46826;-60
2023/01/18 11:30:20;;;;;;;1.27;1.10;;;14.70;50.30;;;;;;4952340;28;45288;-59
2023/01/18 11:32:45;;;;;;;1.92;1.30;;;14.70;50.30;;;;;;4930794;28;45341;-61
2023/01/18 11:35:28;;;;;;;1.75;1.23;;;14.70;50.30;;;;;;4931586;28;45473;-61
2023/01/18 11:37:59;;;;;;;1.35;1.00;;;14.70;50.30;;;;;;4949076;28;44996;-61
2023/01/18 11:40:30;;;;;;;1.73;1.10;;;14.70;50.30;;;;;;4934568;28;46232;-62
2023/01/18 11:43:14;;;;;;;1.85;1.20;;;14.70;50.30;;;;;;4952166;28;45355;-63
2023/01/18 11:45:57;;;;;;;1.20;1.10;;;14.70;50.40;;;;;;4950425;28;45416;-60
2023/01/18 11:48:36;;;;;;;1.65;1.08;;;14.70;50.30;;;;;;4924664;28;45913;-61
2023/01/18 11:51:24;;;;;;;1.48;1.13;;;14.70;50.30;;;;;;4931824;28;45812;-61
2023/01/18 11:53:49;;;;;;;1.30;1.08;;;14.70;50.30;;;;;;4932845;28;45192;-61
2023/01/18 11:56:35;;;;;;;2.10;1.25;;;14.70;50.30;;;;;;4951335;28;45315;-60
2023/01/18 11:59:01;;;;;;;1.58;1.00;;;14.70;50.30;;;;;;4939169;28;45372;-61
2023/01/18 12:02:00;;;;;;;1.38;0.85;;;14.70;50.30;;;;;;4933799;28;45337;-61
2023/01/18 12:04:45;;;;;;;1.52;1.27;;;14.60;50.30;;;;;;4891350;28;45237;-61
2023/01/18 12:07:36;;;;;;;1.13;1.00;;;14.60;50.30;;;;;;4931511;28;45439;-60
2023/01/18 12:10:03;;;;;;;1.75;1.20;;;14.60;50.30;;;;;;4928712;28;45291;-61
2023/01/18 12:12:38;;;;;;;1.50;1.10;;;14.60;50.20;;;;;;4934395;28;45430;-62
2023/01/18 12:15:24;;;;;;;1.48;1.02;;;14.60;50.30;;;;;;4915434;28;45224;-61
2023/01/18 12:18:10;;;;;;;1.48;1.20;;;14.60;50.30;;;;;;4929993;28;45274;-61
2023/01/18 12:21:08;;;;;;;0.88;0.80;;;14.60;50.30;;;;;;4915535;28;45142;-59
2023/01/18 12:23:58;;;;;;;1.48;1.00;;;14.60;50.40;;;;;;4928738;28;46850;-60
2023/01/18 12:26:36;;;;;;;2.10;1.35;;;14.60;50.40;;;;;;4930381;28;44996;-61
2023/01/18 12:29:26;;;;;;;1.00;0.90;;;14.60;50.40;;;;;;4930165;28;45255;-59
2023/01/18 12:32:10;;;;;;;1.48;0.90;;;14.60;50.40;;;;;;4932681;28;44825;-60
2023/01/18 12:35:01;;;;;;;1.73;1.20;;;14.60;50.40;;;;;;4929273;28;45702;-60
2023/01/18 12:38:05;;;;;;;1.98;1.25;;;14.60;50.40;;;;;;4916192;28;45236;-59
2023/01/18 12:40:36;;;;;;;1.15;1.05;;;14.50;50.40;;;;;;4929330;28;44794;-63
2023/01/18 12:43:19;;;;;;;1.13;1.02;;;14.50;50.30;;;;;;4913496;28;45255;-60
2023/01/18 12:45:54;;;;;;;2.17;1.30;;;14.50;50.30;;;;;;4897944;28;46675;-61
2023/01/18 12:48:30;;;;;;;1.95;1.42;;;14.50;50.40;;;;;;4916569;28;45652;-60
2023/01/18 12:50:56;;;;;;;1.88;1.20;;;14.50;50.40;;;;;;4899884;28;45505;-60
2023/01/18 12:53:46;;;;;;;1.42;1.10;;;14.50;50.30;;;;;;4897298;28;45166;-61
2023/01/18 12:56:22;;;;;;;1.33;1.00;;;14.50;50.40;;;;;;4914703;28;47002;-60
2023/01/18 12:59:00;;;;;;;1.17;1.00;;;14.50;50.40;;;;;;4909644;28;45292;-60
2023/01/18 13:01:28;;;;;;;1.20;1.00;;;14.50;50.40;;;;;;4912995;28;44651;-60
2023/01/18 13:03:57;;;;;;;1.70;1.27;;;14.50;50.40;;;;;;4933107;28;45501;-60
2023/01/18 13:06:22;;;;;;;1.60;1.00;;;14.50;50.40;;;;;;4931460;28;46226;-60
2023/01/18 13:08:52;;;;;;;1.60;1.00;;;14.50;50.40;;;;;;4952864;28;45321;-61
2023/01/18 13:11:24;;;;;;;1.77;1.38;;;14.50;50.40;;;;;;4932339;28;45358;-60
2023/01/18 13:14:00;;;;;;;1.80;1.23;;;14.50;50.40;;;;;;4917743;28;44762;-61
2023/01/18 13:16:40;;;;;;;2.13;1.40;;;14.50;50.40;;;;;;4952559;28;45345;-59
2023/01/18 13:19:16;;;;;;;1.35;1.08;;;14.50;50.30;;;;;;4954726;28;45039;-60
2023/01/18 13:21:52;;;;;;;1.08;0.93;;;14.50;50.30;;;;;;4884911;28;44877;-60
2023/01/18 13:24:20;;;;;;;1.23;1.13;;;14.50;50.30;;;;;;4914472;28;45245;-62
2023/01/18 13:26:46;;;;;;;1.10;1.00;;;14.50;50.40;;;;;;4951620;28;46649;-59
2023/01/18 13:29:28;;;;;;;1.42;1.10;;;14.50;50.40;;;;;;4930751;28;45338;-60
2023/01/18 13:31:54;;;;;;;1.88;1.25;;;14.50;50.40;;;;;;4912413;28;45617;-61
2023/01/18 13:34:34;;;;;;;1.40;1.10;;;14.40;50.80;;;;;;4912772;28;45557;-61
2023/01/18 13:37:01;;;;;;;1.90;1.35;;;14.40;50.40;;;;;;4941407;28;45395;-61
2023/01/18 13:39:26;;;;;;;1.33;1.15;;;14.40;50.40;;;;;;4930961;28;45196;-61
2023/01/18 13:42:11;;;;;;;1.70;1.17;;;14.40;50.30;;;;;;4947167;28;45399;-60
2023/01/18 13:44:43;;;;;;;1.63;1.13;;;14.40;50.40;;;;;;4952857;28;45252;-60
2023/01/18 13:47:38;;;;;;;1.40;1.00;;;14.40;50.40;;;;;;4919073;28;46200;-60
2023/01/18 13:50:37;;;;;;;1.30;0.98;;;14.40;50.50;;;;;;4947337;28;45287;-61
2023/01/18 13:53:14;;;;;;;2.33;1.23;;;14.40;50.50;;;;;;4941184;28;45419;-60
2023/01/18 13:55:53;;;;;;;2.03;1.30;;;14.40;50.50;;;;;;4945333;28;44777;-61
2023/01/18 13:58:28;;;;;;;1.00;0.93;;;14.30;50.40;;;;;;4929352;28;45319;-60
2023/01/18 14:00:57;;;;;;;1.25;0.98;;;14.40;50.50;;;;;;4936617;28;45576;-60
2023/01/18 14:03:36;;;;;;;1.25;1.00;;;14.40;50.50;;;;;;4903280;28;45436;-60
2023/01/18 14:06:07;;;;;;;1.45;1.10;;;14.40;50.50;;;;;;4925266;28;45492;-61
2023/01/18 14:08:33;;;;;;;1.27;1.05;;;14.40;50.40;;;;;;4945176;28;45679;-60
2023/01/18 14:11:08;;;;;;;1.10;0.88;;;14.40;50.40;;;;;;4936113;28;44615;-61
2023/01/18 14:13:48;;;;;;;1.23;1.08;;;14.40;50.40;;;;;;4927885;28;45360;-59
2023/01/18 14:16:15;;;;;;;1.13;1.00;;;14.40;50.40;;;;;;4949183;28;45245;-59
2023/01/18 14:18:44;;;;;;;1.10;1.00;;;14.30;50.30;;;;;;4940503;28;46742;-60
2023/01/18 14:21:37;;;;;;;1.90;1.20;;;14.40;50.40;;;;;;4902098;28;44745;-60
2023/01/18 14:24:15;;;;;;;;;;;14.40;50.40;;;;;;4950438;28;45311;-60
2023/01/18 14:26:41;;;;;;;1.20;1.00;;;14.30;50.50;;;;;;4948019;28;46453;-60
2023/01/18 14:29:34;;;;;;;1.17;0.85;;;14.30;50.40;;;;;;4937817;28;46607;-61
2023/01/18 14:32:00;;;;;;;1.25;0.98;;;14.30;50.40;;;;;;4954440;28;45216;-61
2023/01/18 14:34:31;;;;;;;1.67;1.10;;;14.30;50.30;;;;;;4921744;28;45604;-61
2023/01/18 14:36:57;;;;;;;1.83;1.17;;;14.30;50.40;;;;;;4934328;28;45673;-60
2023/01/18 14:39:22;;;;;;;1.98;1.30;;;14.30;50.40;;;;;;4956930;28;45550;-61
2023/01/18 14:41:50;;;;;;;1.60;1.10;;;14.30;50.40;;;;;;4938111;28;44664;-60
2023/01/18 14:44:21;;;;;;;1.80;1.10;;;14.30;50.40;;;;;;4933591;28;45296;-60
2023/01/18 14:46:54;;;;;;;1.95;1.10;;;14.30;50.40;;;;;;4917744;28;45184;-60
2023/01/18 14:49:27;;;;;;;0.82;0.73;;;14.30;50.30;;;;;;4934047;28;46492;-60
2023/01/18 14:51:53;;;;;;;2.00;1.30;;;14.30;50.40;;;;;;4954434;28;45324;-60
2023/01/18 14:54:19;;;;;;;1.30;1.10;;;14.30;50.40;;;;;;4915613;28;44938;-59
2023/01/18 14:56:44;;;;;;;1.67;1.05;;;14.30;50.40;;;;;;4936909;28;45443;-61
2023/01/18 14:59:17;;;;;;;1.30;0.93;;;14.30;50.40;;;;;;4948705;28;45264;-61
2023/01/18 15:01:51;;;;;;;1.40;1.10;;;14.30;50.40;;;;;;4931445;28;45027;-61
2023/01/18 15:04:17;;;;;;;;;;;14.30;50.40;;;;;;4933723;28;45479;-60
2023/01/18 15:06:53;;;;;;;1.63;1.00;;;14.20;50.50;;;;;;4927021;28;45311;-60
2023/01/18 15:09:20;;;;;;;1.60;1.08;;;14.20;50.50;;;;;;4927142;28;45700;-61
2023/01/18 15:11:45;;;;;;;1.40;1.13;;;14.20;51.00;;;;;;4932867;28;45249;-60
2023/01/18 15:14:17;;;;;;;1.60;1.17;;;14.20;50.40;;;;;;4917841;28;45459;-61
2023/01/18 15:16:43;;;;;;;1.85;1.30;;;14.20;50.40;;;;;;4911875;28;45634;-60
2023/01/18 15:19:17;;;;;;;1.40;1.10;;;14.20;50.40;;;;;;4913127;28;45366;-60
2023/01/18 15:21:44;;;;;;;1.17;1.00;;;14.20;50.40;;;;;;4937484;28;45278;-61
2023/01/18 15:24:21;;;;;;;1.35;1.10;;;14.20;50.40;;;;;;4932692;28;45250;-61
2023/01/18 15:26:56;;;;;;;1.33;1.23;;;14.20;50.40;;;;;;4914478;28;44975;-61
2023/01/18 15:29:23;;;;;;;1.63;1.10;;;14.20;50.40;;;;;;4954669;28;45421;-61
2023/01/18 15:31:54;;;;;;;2.17;1.10;;;14.20;50.40;;;;;;4926619;28;45459;-61
2023/01/18 15:34:28;;;;;;;1.45;1.05;;;14.20;50.50;;;;;;4928040;28;44750;-61
2023/01/18 15:36:54;;;;;;;1.40;1.17;;;14.20;50.50;;;;;;4912060;28;45469;-61
2023/01/18 15:39:20;;;;;;;1.30;0.90;;;14.20;50.40;;;;;;4916982;28;45905;-61
2023/01/18 15:41:45;;;;;;;1.38;1.10;;;14.20;50.40;;;;;;4934069;28;44672;-62
2023/01/18 15:44:26;;;;;;;1.33;1.00;;;14.20;50.40;;;;;;4931000;28;44699;-61
2023/01/18 15:46:51;;;;;;;1.80;1.40;;;14.20;50.50;;;;;;4931095;28;45505;-60
2023/01/18 15:49:17;;;;;;;1.48;0.93;;;14.20;50.50;;;;;;4925204;28;45549;-60
2023/01/18 15:51:51;;;;;;;1.60;1.02;;;14.20;50.50;;;;;;4909301;28;45237;-60
2023/01/18 15:54:21;;;;;;;0.95;0.73;;;14.10;50.50;;;;;;4918176;28;45058;-61
2023/01/18 15:56:47;;;;;;;1.15;1.00;;;14.10;50.50;;;;;;4914566;28;44804;-61
2023/01/18 15:59:16;;;;;;;1.33;1.20;;;14.10;50.50;;;;;;4916590;28;45564;-61
2023/01/18 16:01:43;;;;;;;1.52;1.13;;;14.20;50.50;;;;;;4915539;28;46182;-60
2023/01/18 16:04:08;;;;;;;1.35;1.02;;;14.10;50.50;;;;;;4931575;28;45168;-61
2023/01/18 16:06:36;;;;;;;1.60;1.02;;;14.10;50.50;;;;;;4951414;28;45272;-60
2023/01/18 16:09:12;;;;;;;1.88;1.20;;;14.10;50.50;;;;;;4914981;28;45337;-61
2023/01/18 16:11:45;;;;;;;1.20;0.88;;;14.10;50.50;;;;;;4949555;28;44978;-61
2023/01/18 16:14:30;;;;;;;1.20;1.08;;;14.10;50.60;;;;;;4951492;28;45217;-59
2023/01/18 16:17:17;;;;;;;1.27;1.05;;;14.10;50.60;;;;;;4951945;28;45585;-61
2023/01/18 16:19:42;;;;;;;1.15;1.05;;;14.10;50.60;;;;;;4921319;28;45328;-61
2023/01/18 16:22:27;;;;;;;1.25;0.90;;;14.10;50.60;;;;;;4945893;28;45424;-61
2023/01/18 16:24:55;;;;;;;1.38;0.93;;;14.10;50.60;;;;;;4932184;28;45458;-61
2023/01/18 16:27:24;;;;;;;1.45;1.08;;;14.10;50.50;;;;;;4932400;28;45242;-60
2023/01/18 16:30:00;;;;;;;2.30;1.08;;;14.10;50.50;;;;;;4928734;28;46068;-60
2023/01/18 16:32:29;;;;;;;1.42;1.00;;;14.10;50.50;;;;;;4928771;28;45294;-60
2023/01/18 16:34:59;;;;;;;1.55;1.10;;;14.10;50.50;;;;;;4948709;28;45159;-61
2023/01/18 16:37:25;;;;;;;1.50;1.30;;;14.00;50.50;;;;;;4947479;28;45185;-61
2023/01/18 16:39:53;;;;;;;1.58;1.02;;;14.00;50.50;;;;;;4929929;28;45283;-60
2023/01/18 16:42:18;;;;;;;1.50;1.20;;;14.10;50.50;;;;;;4931067;28;46446;-61
2023/01/18 16:44:44;;;;;;;1.38;1.10;;;14.10;50.90;;;;;;4934022;28;45306;-60
2023/01/18 16:47:10;;;;;;;1.02;0.93;;;14.00;50.50;;;;;;4920508;28;44945;-60
2023/01/18 16:49:37;;;;;;;1.35;1.20;;;14.00;50.50;;;;;;4950818;28;45476;-60
2023/01/18 16:52:06;;;;;;;1.60;1.00;;;14.00;51.10;;;;;;4947226;28;45023;-59
2023/01/18 16:54:31;;;;;;;0.85;0.77;;;14.00;50.60;;;;;;4949547;28;45911;-60
2023/01/18 16:56:57;;;;;;;1.38;1.02;;;14.00;50.60;;;;;;4949591;28;45408;-61
2023/01/18 16:59:22;;;;;;;1.90;1.02;;;14.00;50.60;;;;;;4929819;28;47381;-60
2023/01/18 17:01:48;;;;;;;1.40;1.00;;;14.00;50.60;;;;;;4946819;28;45294;-60
2023/01/18 17:04:14;;;;;;;1.25;0.90;;;14.00;50.60;;;;;;4946991;28;45259;-61
2023/01/18 17:06:40;;;;;;;1.30;1.10;;;14.00;50.60;;;;;;4936208;28;45742;-61